Latest Weather Observations for Warruwi

IDD60801

Issued at 3:01 pm CST Sunday 20 August 2017 (issued every 30 minutes, with the page automatically refreshed every 10 minutes)

About weather observations | Map of weather stations | Latest weather observations for NT | Other Formats
Station Details ID: 014401 Name: WARRUWI AIRPORT Lat: -11.65 Lon: 133.38 Height: 19.2 m
Data from the previous 72 hours. | See also: Recent months at Warruwi
Date/Time
CST
Temp
°C
App
Temp
°C
Dew
Point
°C
Rel
Hum
%
Delta-T
°C
Wind Press
QNH
hPa
Press
MSL
hPa
Rain since
9am
mm
Dir  Spd
km/h
Gust
km/h
Spd
kts
Gust
kts
20/03:00pm 29.6 29.8 19.3 54 6.7 ENE 17 28 9 15 1011.3 1011.2 0.0
20/02:30pm 29.3 30.0 19.6 56 6.3 ENE 15 24 8 13 1012.0 1011.9 0.0
20/02:00pm 28.6 29.2 20.3 60 5.5 ENE 17 28 9 15 1012.3 1012.2 0.0
20/01:30pm 28.4 28.8 20.7 63 5.1 E 19 26 10 14 1012.7 1012.6 0.0
20/01:00pm 28.1 28.5 20.9 65 4.8 E 20 30 11 16 1013.2 1013.1 0.0
20/12:30pm 29.0 29.4 20.7 61 5.5 E 19 28 10 15 1013.8 1013.7 0.0
20/12:00pm 27.5 28.5 21.1 68 4.2 E 17 26 9 14 1014.2 1014.1 0.0
20/11:30am 27.8 29.3 21.3 67 4.3 E 15 20 8 11 1014.6 1014.5 0.0
20/11:00am 27.9 29.1 22.2 71 3.8 ESE 19 24 10 13 1015.1 1015.0 0.0
20/10:30am 27.0 27.9 21.5 72 3.7 E 19 26 10 14 1015.3 1015.2 0.0
20/10:00am 26.4 27.2 21.4 74 3.3 ESE 19 24 10 13 1015.5 1015.4 0.0
20/09:30am 26.5 27.4 21.5 74 3.3 ESE 19 22 10 12 1015.4 1015.3 0.0
20/09:00am 25.8 26.5 21.5 77 2.9 ESE 20 30 11 16 1015.4 1015.3 0.0
20/08:30am 25.1 25.6 21.2 79 2.6 ESE 20 32 11 17 1015.5 1015.4 0.0
20/08:00am 24.8 25.7 21.5 82 2.2 ESE 19 28 10 15 1015.3 1015.2 0.0
20/07:30am 24.0 24.5 21.1 84 1.9 ESE 20 28 11 15 1014.7 1014.6 0.0
20/07:00am 23.6 24.1 20.9 85 1.8 ESE 19 26 10 14 1014.4 1014.3 0.0
20/06:30am 23.9 24.2 20.8 83 2.0 ESE 20 26 11 14 1014.2 1014.1 0.0
20/06:00am 24.0 24.8 20.7 82 2.2 ESE 17 24 9 13 1013.8 1013.7 0.0
20/05:30am 24.1 24.6 20.8 82 2.2 ESE 19 26 10 14 1013.5 1013.4 0.0
20/05:00am 24.3 25.1 21.4 84 1.9 ESE 19 28 10 15 1013.2 1013.1 0.0
20/04:30am 24.4 26.0 21.5 84 1.9 ESE 15 20 8 11 1013.1 1013.0 0.0
20/04:00am 24.0 26.7 22.1 89 1.3 ESE 11 15 6 8 1013.1 1013.0 0.0
20/03:30am 23.8 27.1 22.6 93 0.8 ESE 9 13 5 7 1012.9 1012.8 0.0
20/03:00am 23.9 27.9 22.7 93 0.8 SE 6 9 3 5 1013.1 1013.0 0.0
20/02:30am 23.9 27.9 22.7 93 0.8 SSE 6 9 3 5 1013.2 1013.1 0.0
20/02:00am 24.1 28.1 22.7 92 0.9 SSE 6 7 3 4 1013.3 1013.2 0.0
20/01:30am 24.7 29.1 22.8 89 1.3 SSE 4 7 2 4 1013.6 1013.5 0.0
20/01:00am 25.4 29.3 22.9 86 1.7 SE 7 13 4 7 1013.6 1013.5 0.0
20/12:30am 25.8 28.5 22.9 84 2.0 ESE 13 20 7 11 1013.8 1013.7 0.0
20/12:00am 25.6 28.8 23.1 86 1.7 E 11 17 6 9 1014.0 1013.9 0.0
 
Date/Time
CST
Temp
°C
App
Temp
°C
Dew
Point
°C
Rel
Hum
%
Delta-T
°C
Wind Press
QNH
hPa
Press
MSL
hPa
Rain since
9am
mm
Dir  Spd
km/h
Gust
km/h
Spd
kts
Gust
kts
19/11:30pm 25.6 29.2 23.1 86 1.7 E 9 15 5 8 1013.9 1013.8 0.0
19/11:00pm 25.7 28.8 22.8 84 2.0 E 11 17 6 9 1014.0 1013.9 0.0
19/10:30pm 25.7 29.2 22.8 84 2.0 E 9 13 5 7 1014.1 1014.0 0.0
19/10:00pm 25.6 29.0 22.7 84 2.0 ENE 9 15 5 8 1014.1 1014.0 0.0
19/09:30pm 25.4 29.1 22.5 84 2.0 ENE 7 9 4 5 1013.8 1013.7 0.0
19/09:00pm 25.3 29.0 22.2 83 2.1 ENE 6 9 3 5 1013.6 1013.5 0.0
19/08:30pm 25.4 28.9 21.9 81 2.3 ENE 6 9 3 5 1013.4 1013.3 0.0
19/08:00pm 25.3 29.2 21.8 81 2.3 NE 4 7 2 4 1013.0 1012.9 0.0
19/07:30pm 25.5 29.0 21.8 80 2.5 NE 6 11 3 6 1012.7 1012.6 0.0
19/07:00pm 25.7 29.1 21.6 78 2.7 NE 6 9 3 5 1012.3 1012.2 0.0
19/06:30pm 26.1 29.3 21.3 75 3.2 NE 6 9 3 5 1012.0 1011.9 0.0
19/06:00pm 26.9 29.5 21.2 71 3.8 NE 9 13 5 7 1011.5 1011.4 0.0
19/05:30pm 27.7 30.2 21.0 67 4.4 NE 9 17 5 9 1011.3 1011.2 0.0
19/05:00pm 28.1 30.9 20.9 65 4.8 NE 7 15 4 8 1011.1 1011.0 0.0
19/04:30pm 28.6 31.0 20.9 63 5.1 NE 9 17 5 9 1011.2 1011.1 0.0
19/04:00pm 29.0 30.7 21.0 62 5.3 ENE 13 22 7 12 1011.3 1011.2 0.0
19/03:30pm 29.6 30.3 20.5 58 6.0 ENE 17 24 9 13 1011.6 1011.5 0.0
19/03:00pm 29.6 29.9 19.6 55 6.5 ENE 17 24 9 13 1011.8 1011.7 0.0
19/02:30pm 28.8 29.7 20.0 59 5.8 ENE 15 26 8 14 1012.1 1012.0 0.0
19/02:00pm 28.7 29.5 19.9 59 5.8 ENE 15 26 8 14 1012.6 1012.5 0.0
19/01:30pm 28.7 29.9 20.7 62 5.3 ENE 15 22 8 12 1013.1 1013.0 0.0
19/01:00pm 28.5 29.4 20.8 63 5.1 E 17 22 9 12 1013.6 1013.5 0.0
19/12:30pm 28.3 29.8 21.3 65 4.7 E 15 20 8 11 1014.2 1014.1 0.0
19/12:00pm 29.0 30.2 20.7 61 5.5 E 15 24 8 13 1014.7 1014.6 0.0
19/11:30am 28.1 29.3 20.6 63 4.9 E 15 22 8 12 1015.2 1015.1 0.0
19/11:00am 28.0 29.2 21.5 67 4.3 ESE 17 22 9 12 1015.6 1015.5 0.0
19/10:30am 27.4 28.2 21.4 70 4.0 E 19 24 10 13 1016.0 1015.9 0.0
19/10:00am 27.1 28.3 21.4 71 3.8 ESE 17 22 9 12 1016.1 1016.0 0.0
19/09:30am 26.4 27.3 20.9 72 3.6 ESE 17 22 9 12 1016.1 1016.0 0.0
19/09:00am 26.4 27.5 21.2 73 3.4 ESE 17 22 9 12 1015.9 1015.8 0.0
19/08:30am 25.5 26.9 21.0 76 3.0 ESE 15 22 8 12 1015.5 1015.4 0.0
19/08:00am 24.9 26.9 20.8 78 2.7 SE 11 19 6 10 1015.1 1015.0 0.0
19/07:30am 24.1 26.0 20.6 81 2.3 SE 11 15 6 8 1014.7 1014.6 0.0
19/07:00am 23.3 25.8 20.2 83 2.0 SE 7 13 4 7 1014.4 1014.3 0.0
19/06:30am 23.0 25.8 20.9 88 1.4 SE 7 9 4 5 1014.0 1013.9 0.0
19/06:00am 23.3 26.8 22.1 93 0.8 SSE 7 9 4 5 1013.8 1013.7 0.0
19/05:30am 23.3 27.0 22.3 94 0.7 SE 6 7 3 4 1013.7 1013.6 0.0
19/05:00am 23.4 27.5 22.2 93 0.8 SSE 4 6 2 3 1013.5 1013.4 0.0
19/04:30am 23.7 27.8 22.3 92 0.9 SSE 4 6 2 3 1013.3 1013.2 0.0
19/04:00am 23.6 28.3 22.0 91 1.1 CALM 0 2 0 1 1013.3 1013.2 0.0
19/03:30am 23.5 27.8 21.9 91 1.1 SE 2 7 1 4 1013.4 1013.3 0.0
19/03:00am 23.5 27.8 21.9 91 1.1 E 2 6 1 3 1013.3 1013.2 0.0
19/02:30am 23.5 28.1 21.8 90 1.1 CALM 0 2 0 1 1013.3 1013.2 0.0
19/02:00am 23.9 28.2 22.0 89 1.3 SE 2 4 1 2 1013.4 1013.3 0.0
19/01:30am 24.7 28.8 22.2 86 1.7 SE 4 6 2 3 1013.5 1013.4 0.0
19/01:00am 25.3 28.9 22.4 84 1.9 ESE 7 13 4 7 1013.7 1013.6 0.0
19/12:30am 25.4 28.6 22.3 83 2.1 E 9 15 5 8 1013.9 1013.8 0.0
19/12:00am 25.3 28.8 22.2 83 2.1 E 7 11 4 6 1014.2 1014.1 0.0
 
Date/Time
CST
Temp
°C
App
Temp
°C
Dew
Point
°C
Rel
Hum
%
Delta-T
°C
Wind Press
QNH
hPa
Press
MSL
hPa
Rain since
9am
mm
Dir  Spd
km/h
Gust
km/h
Spd
kts
Gust
kts
18/11:30pm 25.2 28.7 21.9 82 2.2 E 6 9 3 5 1014.2 1014.1 0.0
18/11:00pm 25.6 28.9 21.9 80 2.5 E 7 11 4 6 1014.1 1014.0 0.0
18/10:30pm 25.4 28.9 21.9 81 2.3 E 6 7 3 4 1014.0 1013.9 0.0
18/10:00pm 25.6 29.1 21.9 80 2.5 ENE 6 13 3 7 1014.2 1014.1 0.0
18/09:30pm 25.5 29.0 21.8 80 2.5 ENE 6 9 3 5 1014.0 1013.9 0.0
18/09:00pm 25.6 28.7 21.5 78 2.7 ENE 7 9 4 5 1013.7 1013.6 0.0
18/08:30pm 25.7 28.8 21.4 77 2.9 ENE 7 11 4 6 1013.3 1013.2 0.0
18/08:00pm 25.8 28.3 21.0 75 3.2 ENE 9 15 5 8 1013.0 1012.9 0.0
18/07:30pm 26.0 28.9 21.0 74 3.3 ENE 7 13 4 7 1012.7 1012.6 0.0
18/07:00pm 26.1 28.4 20.7 72 3.5 ENE 9 13 5 7 1012.4 1012.3 0.0
18/06:30pm 26.4 28.2 20.3 69 4.0 ENE 11 17 6 9 1012.0 1011.9 0.0
18/06:00pm 27.1 28.2 19.7 64 4.8 ENE 13 22 7 12 1011.7 1011.6 0.0
18/05:30pm 27.6 28.9 20.2 64 4.9 ENE 13 22 7 12 1011.6 1011.5 0.0
18/05:00pm 28.0 28.8 19.8 61 5.3 E 15 22 8 12 1011.5 1011.4 0.0
18/04:30pm 28.2 28.5 19.7 60 5.5 ENE 17 28 9 15 1011.4 1011.3 0.0
18/04:00pm 28.5 29.0 20.0 60 5.6 E 17 26 9 14 1011.6 1011.5 0.0
18/03:30pm 28.8 28.3 20.0 59 5.8 E 22 30 12 16 1011.9 1011.8 0.0
18/03:00pm 29.4 29.6 19.4 55 6.5 E 17 26 9 14 1012.2 1012.1 0.0
18/02:30pm 29.3 29.1 19.3 55 6.5 E 19 33 10 18 1012.4 1012.3 0.0
18/02:00pm 28.7 28.2 19.1 56 6.2 E 20 28 11 15 1012.8 1012.7 0.0
18/01:30pm 28.8 28.3 19.1 55 6.3 E 20 30 11 16 1013.1 1013.0 0.0
18/01:00pm 29.6 30.0 21.0 60 5.7 E 20 26 11 14 1013.5 1013.4 0.0
18/12:30pm 28.9 29.4 21.1 62 5.2 E 20 28 11 15 1013.9 1013.8 0.0
18/12:00pm 28.9 29.1 20.6 61 5.5 E 20 28 11 15 1014.2 1014.1 0.0
18/11:30am 27.9 27.8 20.7 65 4.8 E 22 30 12 16 1014.6 1014.5 0.0
18/11:00am 28.2 28.4 20.5 63 5.1 E 20 28 11 15 1014.7 1014.6 0.0
18/10:30am 27.7 28.0 20.5 65 4.7 E 19 24 10 13 1015.0 1014.9 0.0
18/10:00am 27.1 28.2 21.2 70 3.9 SE 17 24 9 13 1015.0 1014.9 0.0
18/09:30am 25.9 27.4 21.3 76 3.0 SE 15 20 8 11 1014.8 1014.7 0.0
18/09:00am 25.4 27.4 21.5 79 2.6 SE 13 19 7 10 1014.8 1014.7 0.0
18/08:30am 25.1 26.8 21.6 81 2.3 SE 15 20 8 11 1014.6 1014.5 0.0
18/08:00am 24.7 26.7 21.6 83 2.1 SE 13 20 7 11 1014.2 1014.1 0.0
18/07:30am 24.4 26.9 21.7 85 1.8 SE 11 17 6 9 1013.9 1013.8 0.0
18/07:00am 24.1 26.1 21.6 86 1.7 ESE 13 17 7 9 1013.4 1013.3 0.0
18/06:30am 24.3 26.3 21.6 85 1.8 ESE 13 20 7 11 1013.1 1013.0 0.0
18/06:00am 24.5 26.3 21.8 85 1.8 ESE 15 24 8 13 1012.7 1012.6 0.0
18/05:30am 24.6 25.8 22.1 86 1.7 ESE 19 28 10 15 1012.3 1012.2 0.0
18/05:00am 24.8 26.9 22.5 87 1.5 ESE 15 22 8 12 1012.0 1011.9 0.0
18/04:30am 24.7 27.8 22.8 89 1.3 ESE 11 17 6 9 1011.7 1011.6 0.0
18/04:00am 24.9 27.2 22.8 88 1.4 E 15 19 8 10 1011.6 1011.5 0.0
18/03:30am 25.1 27.8 22.8 87 1.6 E 13 19 7 10 1011.5 1011.4 0.0
18/03:00am 25.1 28.6 22.8 87 1.6 ESE 9 15 5 8 1011.5 1011.4 0.0
18/02:30am 25.3 28.3 22.6 85 1.8 E 11 17 6 9 1011.5 1011.4 0.0
18/02:00am 25.6 28.1 22.5 83 2.1 E 13 20 7 11 1011.7 1011.6 0.0
18/01:30am 25.6 27.5 22.1 81 2.3 E 15 22 8 12 1011.8 1011.7 0.0
18/01:00am 25.6 27.4 21.9 80 2.5 E 15 20 8 11 1011.7 1011.6 0.0
18/12:30am 25.7 27.5 21.8 79 2.6 E 15 22 8 12 1011.9 1011.8 0.0
18/12:00am 25.6 27.6 21.5 78 2.7 E 13 20 7 11 1011.9 1011.8 0.0
 
Date/Time
CST
Temp
°C
App
Temp
°C
Dew
Point
°C
Rel
Hum
%
Delta-T
°C
Wind Press
QNH
hPa
Press
MSL
hPa
Rain since
9am
mm
Dir  Spd
km/h
Gust
km/h
Spd
kts
Gust
kts
17/11:30pm 25.6 28.4 21.5 78 2.7 E 9 15 5 8 1012.0 1011.9 0.0
17/11:00pm 25.1 28.5 21.6 81 2.3 ENE 6 9 3 5 1012.0 1011.9 0.0
17/10:30pm 24.8 28.4 21.3 81 2.3 ENE 4 7 2 4 1012.1 1012.0 0.0
17/10:00pm 24.9 28.1 21.2 80 2.4 ENE 6 7 3 4 1012.0 1011.9 0.0
17/09:30pm 25.1 28.7 21.2 79 2.6 ENE 4 7 2 4 1011.8 1011.7 0.0
17/09:00pm 25.3 28.6 21.4 79 2.6 ENE 6 13 3 7 1011.7 1011.6 0.0
17/08:30pm 25.3 28.7 21.6 80 2.5 ENE 6 9 3 5 1011.4 1011.3 0.0
17/08:00pm 25.4 28.5 21.5 79 2.6 ENE 7 11 4 6 1011.1 1011.0 0.0
17/07:30pm 25.6 28.3 21.3 77 2.8 ENE 9 13 5 7 1010.8 1010.7 0.0
17/07:00pm 25.8 28.4 21.2 76 3.0 ENE 9 15 5 8 1010.9 1010.8 0.0
17/06:30pm 26.1 28.1 20.7 72 3.6 ENE 11 19 6 10 1010.6 1010.5 0.0
17/06:00pm 26.6 28.0 20.4 69 4.1 ENE 13 20 7 11 1010.5 1010.4 0.0
17/05:30pm 27.2 28.8 20.8 68 4.2 ENE 13 20 7 11 1010.3 1010.2 0.0
17/05:00pm 27.4 28.4 20.2 65 4.7 ENE 15 24 8 13 1010.4 1010.3 0.0
17/04:30pm 27.6 27.8 20.2 64 4.9 ENE 19 26 10 14 1010.5 1010.4 0.0
17/04:00pm 27.9 28.6 20.5 64 4.9 E 17 22 9 12 1010.5 1010.4 0.0
17/03:30pm 28.2 29.1 21.5 67 4.5 ENE 19 26 10 14 1010.7 1010.6 0.0

Other Formats:

Comma delimited format used in spreadsheet applications
http://www.bom.gov.au/fwo/IDD60801/IDD60801.94139.axf

JavaScript Object Notation format (JSON) in row-major order
http://www.bom.gov.au/fwo/IDD60801/IDD60801.94139.json